createdAt,value
2018-07-04T00:00:40.195Z,88.64
2018-07-04T00:03:20.602Z,88.27
2018-07-04T00:06:01.012Z,89.03
2018-07-04T00:08:41.582Z,89.23
2018-07-04T00:11:22.441Z,90.12
2018-07-04T00:14:02.744Z,88.42
2018-07-04T00:16:43.004Z,89.13
2018-07-04T00:19:23.370Z,89.00
2018-07-04T00:22:03.620Z,89.12
2018-07-04T00:24:43.900Z,89.51
2018-07-04T00:27:24.100Z,89.24
2018-07-04T00:30:04.346Z,88.88
2018-07-04T00:32:44.701Z,88.29
2018-07-04T00:35:25.100Z,88.03
2018-07-04T00:38:05.606Z,87.93
2018-07-04T00:40:45.886Z,87.83
2018-07-04T00:43:26.197Z,87.88
2018-07-04T00:46:06.477Z,87.57
2018-07-04T00:48:46.711Z,87.96
2018-07-04T00:51:27.015Z,88.11
2018-07-04T00:54:07.199Z,88.06
2018-07-04T00:56:47.489Z,88.49
2018-07-04T00:59:27.957Z,88.44
2018-07-04T01:02:08.267Z,88.53
2018-07-04T01:04:48.518Z,89.22
2018-07-04T01:07:28.841Z,88.98
2018-07-04T01:10:09.141Z,89.13
2018-07-04T01:12:49.445Z,89.37
2018-07-04T01:15:29.801Z,89.12
2018-07-04T01:18:10.206Z,88.89
2018-07-04T01:20:55.740Z,88.79
2018-07-04T01:23:37.670Z,88.72
2018-07-04T01:26:17.943Z,88.43
2018-07-04T01:28:58.182Z,88.84
2018-07-04T01:31:38.342Z,89.21
2018-07-04T01:34:18.622Z,89.48
2018-07-04T01:36:59.075Z,90.01
2018-07-04T01:39:39.358Z,89.87
2018-07-04T01:42:19.610Z,90.32
2018-07-04T01:44:59.763Z,90.74
2018-07-04T01:47:40.038Z,91.28
2018-07-04T01:50:20.359Z,91.60
2018-07-04T01:53:00.752Z,91.83
2018-07-04T01:55:41.031Z,91.80
2018-07-04T01:58:21.450Z,92.06
2018-07-04T02:01:01.888Z,92.81
2018-07-04T02:03:42.227Z,92.86
2018-07-04T02:06:22.564Z,92.79
2018-07-04T02:09:02.964Z,92.68
2018-07-04T02:11:43.328Z,93.02
2018-07-04T02:14:23.825Z,93.20
2018-07-04T02:17:05.109Z,93.84
2018-07-04T02:19:45.304Z,93.54
2018-07-04T02:22:25.559Z,93.97
2018-07-04T02:25:06.103Z,94.31
2018-07-04T02:27:46.389Z,94.94
2018-07-04T02:30:26.581Z,95.21
2018-07-04T02:33:07.021Z,95.21
2018-07-04T02:35:47.269Z,95.57
2018-07-04T02:38:27.638Z,95.75
2018-07-04T02:41:07.937Z,96.11
2018-07-04T02:43:48.399Z,96.21
2018-07-04T02:46:34.118Z,95.96
2018-07-04T02:49:14.326Z,95.80
2018-07-04T02:51:54.618Z,95.77
2018-07-04T02:54:34.712Z,95.51
2018-07-04T02:57:14.925Z,95.97
2018-07-04T02:59:55.277Z,96.09
2018-07-04T03:02:35.694Z,95.92
2018-07-04T03:05:15.910Z,95.95
2018-07-04T03:07:56.228Z,95.34
2018-07-04T03:10:36.686Z,95.10
2018-07-04T03:13:16.874Z,95.84
2018-07-04T03:15:57.245Z,95.87
2018-07-04T03:18:37.608Z,96.71
2018-07-04T03:21:17.954Z,97.18
2018-07-04T03:23:58.429Z,97.06
2018-07-04T03:26:38.779Z,96.96
2018-07-04T03:29:19.104Z,96.88
2018-07-04T03:31:59.347Z,96.76
2018-07-04T03:34:39.545Z,96.68
2018-07-04T03:37:19.935Z,96.94
2018-07-04T03:40:00.863Z,97.00
2018-07-04T03:42:41.082Z,96.90
2018-07-04T03:45:21.439Z,96.60
2018-07-04T03:48:01.715Z,96.70
2018-07-04T03:50:41.909Z,97.70
2018-07-04T03:53:22.288Z,97.28
2018-07-04T03:56:02.506Z,97.09
2018-07-04T03:58:42.803Z,97.45
2018-07-04T04:01:23.230Z,97.63
2018-07-04T04:04:04.350Z,97.98
2018-07-04T04:06:44.589Z,97.83
2018-07-04T04:09:25.099Z,97.57
2018-07-04T04:12:05.388Z,97.38
2018-07-04T04:14:45.736Z,96.55
2018-07-04T04:17:26.106Z,96.91
2018-07-04T04:20:06.450Z,96.28
2018-07-04T04:22:46.881Z,95.91
2018-07-04T04:25:27.134Z,95.65
2018-07-04T04:28:07.490Z,95.87
2018-07-04T04:30:47.684Z,95.65
2018-07-04T04:33:28.104Z,95.27
2018-07-04T04:36:08.297Z,95.23
2018-07-04T04:38:48.673Z,95.03
2018-07-04T04:41:29.005Z,94.60
2018-07-04T04:44:09.351Z,94.70
2018-07-04T04:46:50.000Z,94.45
2018-07-04T04:49:30.268Z,94.90
2018-07-04T04:52:10.536Z,95.20
2018-07-04T04:54:50.895Z,93.87
2018-07-04T04:57:31.097Z,93.72
2018-07-04T05:00:11.364Z,92.86
2018-07-04T05:02:51.674Z,91.88
2018-07-04T05:05:31.936Z,90.43
2018-07-04T05:08:12.193Z,88.18
2018-07-04T05:10:52.701Z,87.31
2018-07-04T05:13:32.869Z,87.57
2018-07-04T05:16:13.228Z,87.10
2018-07-04T05:18:53.541Z,86.32
2018-07-04T05:21:33.842Z,85.89
2018-07-04T05:24:14.298Z,85.59
2018-07-04T05:26:54.526Z,84.94
2018-07-04T05:29:35.380Z,84.82
2018-07-04T05:32:15.754Z,84.70
2018-07-04T05:34:56.020Z,85.19
2018-07-04T05:37:36.384Z,83.96
2018-07-04T05:40:17.664Z,83.79
2018-07-04T05:42:58.010Z,83.85
2018-07-04T05:45:38.353Z,83.93
2018-07-04T05:48:18.863Z,82.90
2018-07-04T05:50:59.330Z,81.94
2018-07-04T05:53:39.551Z,81.70
2018-07-04T05:56:20.077Z,80.20
2018-07-04T05:59:00.377Z,79.18
2018-07-04T06:01:40.611Z,80.67
2018-07-04T06:04:21.041Z,80.59
2018-07-04T06:07:01.376Z,80.71
2018-07-04T06:09:41.845Z,81.02
2018-07-04T06:12:23.983Z,79.21
2018-07-04T06:15:04.313Z,78.18
2018-07-04T06:17:44.610Z,77.23
2018-07-04T06:20:24.953Z,78.59
2018-07-04T06:23:07.129Z,76.11
2018-07-04T06:25:47.421Z,74.34
2018-07-04T06:28:27.775Z,71.04
2018-07-04T06:31:08.205Z,71.56
2018-07-04T06:33:48.546Z,70.38
2018-07-04T06:36:29.072Z,68.98
2018-07-04T06:38:56.972Z,69.33
2018-07-04T06:41:24.913Z,69.26
2018-07-04T06:43:52.843Z,69.80
2018-07-04T06:46:20.797Z,68.89
2018-07-04T06:48:48.716Z,66.75
2018-07-04T06:51:16.658Z,66.43
2018-07-04T06:53:44.590Z,66.77
2018-07-04T06:56:12.506Z,66.40
2018-07-04T06:58:40.473Z,66.14
2018-07-04T07:01:08.386Z,66.22
2018-07-04T07:03:48.685Z,66.07
2018-07-04T07:06:28.994Z,67.00
2018-07-04T07:09:09.168Z,64.56
2018-07-04T07:11:49.520Z,66.88
2018-07-04T07:14:29.769Z,65.55
2018-07-04T07:17:10.045Z,64.13
2018-07-04T07:19:50.253Z,63.27
2018-07-04T07:22:30.572Z,62.25
2018-07-04T07:25:10.934Z,62.15
2018-07-04T07:27:51.833Z,59.81
2018-07-04T07:30:32.150Z,58.25
2018-07-04T07:33:12.526Z,59.85
2018-07-04T07:35:52.852Z,62.41
2018-07-04T07:38:33.134Z,58.89
2018-07-04T07:41:13.425Z,58.48
2018-07-04T07:43:53.767Z,58.77
2018-07-04T07:46:34.153Z,59.61
2018-07-04T07:49:14.398Z,60.46
2018-07-04T07:51:54.773Z,61.31
2018-07-04T07:54:35.181Z,58.39
2018-07-04T07:57:15.557Z,57.72
2018-07-04T07:59:55.777Z,57.35
2018-07-04T08:02:36.089Z,56.34
2018-07-04T08:05:16.405Z,56.01
2018-07-04T08:07:56.913Z,56.95
2018-07-04T08:10:37.221Z,56.61
2018-07-04T08:13:17.609Z,57.81
2018-07-04T08:15:58.095Z,56.44
2018-07-04T08:18:38.369Z,59.23
2018-07-04T08:21:18.669Z,57.20
2018-07-04T08:23:59.103Z,57.51
2018-07-04T08:26:39.353Z,55.56
2018-07-04T08:29:19.657Z,54.42
2018-07-04T08:31:59.819Z,54.85
2018-07-04T08:34:41.650Z,56.31
2018-07-04T08:37:22.108Z,55.04
2018-07-04T08:40:02.478Z,53.20
2018-07-04T08:42:42.785Z,54.18
2018-07-04T08:45:23.112Z,54.80
2018-07-04T08:48:03.460Z,53.99
2018-07-04T08:50:43.985Z,54.78
2018-07-04T08:53:24.446Z,52.50
2018-07-04T08:56:05.173Z,54.19
2018-07-04T08:58:45.320Z,52.15
2018-07-04T09:01:25.888Z,50.53
2018-07-04T09:04:06.372Z,49.39
2018-07-04T09:06:46.577Z,50.52
2018-07-04T09:09:26.809Z,49.35
2018-07-04T09:12:07.305Z,49.35
2018-07-04T09:14:48.785Z,50.48
2018-07-04T09:17:29.051Z,50.81
2018-07-04T09:20:09.369Z,52.52
2018-07-04T09:22:49.841Z,50.86
2018-07-04T09:25:30.785Z,49.05
2018-07-04T09:28:11.144Z,48.79
2018-07-04T09:30:51.510Z,48.12
2018-07-04T09:33:31.724Z,47.34
2018-07-04T09:36:11.878Z,47.72
2018-07-04T09:38:52.281Z,52.27
2018-07-04T09:41:32.753Z,47.75
2018-07-04T09:44:13.095Z,49.20
2018-07-04T09:46:53.416Z,48.95
2018-07-04T09:49:34.024Z,48.87
2018-07-04T09:52:14.252Z,47.30
2018-07-04T09:54:54.745Z,48.83
2018-07-04T09:57:35.802Z,46.80
2018-07-04T10:00:19.865Z,48.95
2018-07-04T10:03:00.284Z,47.74
2018-07-04T10:05:40.736Z,48.91
2018-07-04T10:08:20.993Z,48.88
2018-07-04T10:11:01.446Z,48.94
2018-07-04T10:13:41.726Z,48.72
2018-07-04T10:16:21.953Z,48.01
2018-07-04T10:19:02.431Z,46.28
2018-07-04T10:21:42.817Z,46.05
2018-07-04T10:24:23.313Z,45.43
2018-07-04T10:27:03.537Z,44.86
2018-07-04T10:29:43.754Z,44.49
2018-07-04T10:32:24.137Z,41.63
2018-07-04T10:35:04.504Z,42.26
2018-07-04T10:37:45.156Z,42.14
2018-07-04T10:40:25.466Z,42.15
2018-07-04T10:43:05.873Z,44.18
2018-07-04T10:45:46.192Z,40.79
2018-07-04T10:48:26.916Z,40.67
2018-07-04T10:51:07.361Z,40.97
2018-07-04T10:53:47.804Z,44.34
2018-07-04T10:56:28.088Z,39.53
2018-07-04T10:59:08.372Z,41.65
2018-07-04T11:01:51.266Z,40.66
2018-07-04T11:04:31.591Z,41.72
2018-07-04T11:07:12.109Z,39.67
2018-07-04T11:09:52.351Z,40.16
2018-07-04T11:12:32.855Z,33.42
2018-07-04T11:15:13.259Z,34.78
2018-07-04T11:17:53.521Z,34.84
2018-07-04T11:20:34.149Z,33.15
2018-07-04T11:23:14.529Z,35.24
2018-07-04T11:25:54.989Z,33.83
2018-07-04T11:28:35.353Z,33.97
2018-07-04T11:31:15.655Z,34.65
2018-07-04T11:33:56.004Z,35.33
2018-07-04T11:36:36.245Z,32.85
2018-07-04T11:39:16.781Z,33.30
2018-07-04T11:41:57.257Z,33.78
2018-07-04T11:44:40.024Z,35.27
2018-07-04T11:47:08.072Z,34.21
2018-07-04T11:49:36.044Z,34.74
2018-07-04T11:52:03.942Z,34.61
2018-07-04T11:54:31.922Z,33.20
2018-07-04T11:56:59.922Z,34.15
2018-07-04T11:59:27.785Z,32.92
2018-07-04T12:01:55.737Z,34.37
2018-07-04T12:04:36.019Z,32.44
2018-07-04T12:07:06.851Z,35.32
2018-07-04T12:09:39.282Z,35.81
2018-07-04T12:12:07.378Z,35.92
2018-07-04T12:14:35.287Z,36.24
2018-07-04T12:17:03.213Z,33.06
2018-07-04T12:19:31.165Z,33.59
2018-07-04T12:21:59.060Z,32.41
2018-07-04T12:24:27.030Z,30.62
2018-07-04T12:26:54.986Z,33.31
2018-07-04T12:29:22.902Z,32.70
2018-07-04T12:31:50.870Z,34.26
2018-07-04T12:34:18.832Z,36.99
2018-07-04T12:36:46.730Z,36.97
2018-07-04T12:39:14.829Z,34.92
2018-07-04T12:41:43.049Z,34.26
2018-07-04T12:44:10.997Z,34.63
2018-07-04T12:46:38.998Z,34.96
2018-07-04T12:49:06.967Z,33.85
2018-07-04T12:51:35.820Z,36.03
2018-07-04T12:54:09.149Z,36.75
2018-07-04T12:56:49.534Z,37.57
2018-07-04T12:59:29.726Z,37.07
2018-07-04T13:02:09.913Z,36.28
2018-07-04T13:04:50.245Z,38.41
2018-07-04T13:07:30.437Z,37.25
2018-07-04T13:10:10.772Z,36.70
2018-07-04T13:12:50.959Z,37.47
2018-07-04T13:15:31.281Z,37.34
2018-07-04T13:18:11.585Z,34.43
2018-07-04T13:20:51.921Z,36.75
2018-07-04T13:23:32.499Z,37.61
2018-07-04T13:26:13.039Z,36.50
2018-07-04T13:28:53.454Z,34.85
2018-07-04T13:31:33.816Z,33.79
2018-07-04T13:34:14.158Z,35.32
2018-07-04T13:36:54.350Z,34.93
2018-07-04T13:39:34.592Z,33.50
2018-07-04T13:42:14.784Z,33.39
2018-07-04T13:44:55.182Z,31.92
2018-07-04T13:47:35.466Z,33.68
2018-07-04T13:50:17.245Z,36.03
2018-07-04T13:52:57.751Z,32.41
2018-07-04T13:55:37.975Z,31.90
2018-07-04T13:58:18.402Z,33.08
2018-07-04T14:00:58.696Z,33.41
2018-07-04T14:03:39.049Z,33.03
2018-07-04T14:06:19.330Z,31.79
2018-07-04T14:08:59.783Z,33.14
2018-07-04T14:11:40.058Z,32.62
2018-07-04T14:14:20.537Z,33.58
2018-07-04T14:17:00.977Z,33.24
2018-07-04T14:19:41.463Z,33.40
2018-07-04T14:22:21.802Z,34.16
2018-07-04T14:25:02.077Z,34.13
2018-07-04T14:27:42.478Z,32.54
2018-07-04T14:30:22.693Z,32.82
2018-07-04T14:33:03.061Z,32.92
2018-07-04T14:35:43.621Z,30.63
2018-07-04T14:38:24.027Z,31.46
2018-07-04T14:41:04.373Z,30.38
2018-07-04T14:43:44.687Z,29.79
2018-07-04T14:46:25.142Z,29.47
2018-07-04T14:49:05.337Z,27.83
2018-07-04T14:51:45.675Z,28.93
2018-07-04T14:54:29.656Z,29.14
2018-07-04T14:57:10.126Z,27.77
2018-07-04T14:59:50.366Z,28.80
2018-07-04T15:02:30.969Z,28.80
2018-07-04T15:05:11.299Z,29.57
2018-07-04T15:07:51.819Z,29.70
2018-07-04T15:10:32.069Z,30.37
2018-07-04T15:13:12.390Z,29.91
2018-07-04T15:15:52.684Z,30.45
2018-07-04T15:18:32.749Z,30.61
2018-07-04T15:21:13.091Z,31.03
2018-07-04T15:23:53.829Z,28.42
2018-07-04T15:26:34.161Z,29.00
2018-07-04T15:29:14.461Z,29.00
2018-07-04T15:31:54.748Z,29.60
2018-07-04T15:34:35.413Z,28.90
2018-07-04T15:37:15.671Z,29.97
2018-07-04T15:39:56.161Z,28.28
2018-07-04T15:42:36.574Z,28.22
2018-07-04T15:45:16.903Z,27.65
2018-07-04T15:47:57.241Z,27.40
2018-07-04T15:50:37.601Z,28.91
2018-07-04T15:53:17.997Z,28.22
2018-07-04T15:55:58.223Z,29.92
2018-07-04T15:58:38.433Z,27.41
2018-07-04T16:01:18.693Z,27.78
2018-07-04T16:03:59.073Z,28.30
2018-07-04T16:06:39.564Z,28.29
2018-07-04T16:09:19.842Z,29.35
2018-07-04T16:12:00.098Z,28.87
2018-07-04T16:14:40.550Z,28.54
2018-07-04T16:17:20.872Z,28.83
2018-07-04T16:20:01.099Z,29.67
2018-07-04T16:22:41.537Z,30.33
2018-07-04T16:25:21.952Z,29.77
2018-07-04T16:28:02.292Z,30.44
2018-07-04T16:30:42.549Z,32.32
2018-07-04T16:33:22.949Z,30.50
2018-07-04T16:36:03.337Z,31.30
2018-07-04T16:38:43.823Z,31.85
2018-07-04T16:41:24.189Z,31.24
2018-07-04T16:44:04.643Z,31.79
2018-07-04T16:46:44.839Z,31.30
2018-07-04T16:49:25.045Z,31.16
2018-07-04T16:52:05.305Z,31.00
2018-07-04T16:54:45.483Z,31.79
2018-07-04T16:57:25.684Z,31.66
2018-07-04T17:00:06.061Z,32.27
2018-07-04T17:02:46.609Z,32.23
2018-07-04T17:05:27.017Z,32.98
2018-07-04T17:08:07.371Z,33.75
2018-07-04T17:10:47.678Z,34.27
2018-07-04T17:13:28.073Z,35.13
2018-07-04T17:16:08.480Z,34.55
2018-07-04T17:18:48.777Z,35.05
2018-07-04T17:21:29.097Z,35.33
2018-07-04T17:24:09.537Z,35.16
2018-07-04T17:26:49.910Z,35.82
2018-07-04T17:29:30.270Z,35.17
2018-07-04T17:32:10.354Z,36.43
2018-07-04T17:34:50.536Z,37.19
2018-07-04T17:37:30.825Z,38.78
2018-07-04T17:40:10.967Z,38.64
2018-07-04T17:42:51.505Z,40.09
2018-07-04T17:45:31.841Z,41.23
2018-07-04T17:48:12.458Z,42.51
2018-07-04T17:50:52.609Z,42.01
2018-07-04T17:53:32.871Z,41.52
2018-07-04T17:56:12.948Z,43.41
2018-07-04T17:58:53.372Z,43.78
2018-07-04T18:01:33.585Z,44.27
2018-07-04T18:04:15.607Z,45.43
2018-07-04T18:06:55.823Z,44.72
2018-07-04T18:09:36.379Z,45.25
2018-07-04T18:12:16.832Z,46.75
2018-07-04T18:14:57.346Z,46.38
2018-07-04T18:17:37.721Z,46.68
2018-07-04T18:20:18.060Z,46.95
2018-07-04T18:22:58.529Z,48.50
2018-07-04T18:25:39.183Z,47.98
2018-07-04T18:28:19.683Z,48.53
2018-07-04T18:31:00.023Z,49.39
2018-07-04T18:33:40.373Z,49.69
2018-07-04T18:36:20.877Z,50.25
2018-07-04T18:39:01.351Z,50.56
2018-07-04T18:41:41.729Z,51.25
2018-07-04T18:44:22.053Z,52.19
2018-07-04T18:47:02.442Z,53.34
2018-07-04T18:49:42.610Z,53.90
2018-07-04T18:52:22.751Z,54.17
2018-07-04T18:55:03.037Z,53.99
2018-07-04T18:57:43.419Z,53.29
2018-07-04T19:00:23.867Z,54.13
2018-07-04T19:03:04.300Z,54.22
2018-07-04T19:05:44.685Z,55.48
2018-07-04T19:08:25.093Z,56.00
2018-07-04T19:11:05.387Z,56.59
2018-07-04T19:13:45.844Z,57.31
2018-07-04T19:16:26.107Z,58.30
2018-07-04T19:19:06.564Z,58.59
2018-07-04T19:21:46.874Z,58.93
2018-07-04T19:24:27.227Z,59.62
2018-07-04T19:27:07.586Z,59.40
2018-07-04T19:29:47.900Z,60.27
2018-07-04T19:32:28.176Z,60.26
2018-07-04T19:35:08.544Z,60.59
2018-07-04T19:37:48.850Z,60.76
2018-07-04T19:40:29.338Z,61.41
2018-07-04T19:43:09.623Z,62.48
2018-07-04T19:45:50.190Z,62.39
2018-07-04T19:48:30.569Z,62.64
2018-07-04T19:51:10.825Z,63.35
2018-07-04T19:53:51.080Z,63.24
2018-07-04T19:56:31.506Z,63.82
2018-07-04T19:59:11.983Z,64.35
2018-07-04T20:01:52.224Z,64.54
2018-07-04T20:04:32.600Z,64.76
2018-07-04T20:07:12.965Z,65.65
2018-07-04T20:09:53.437Z,65.97
2018-07-04T20:12:33.717Z,65.69
2018-07-04T20:15:14.029Z,67.11
2018-07-04T20:17:55.229Z,66.99
2018-07-04T20:20:35.695Z,67.18
2018-07-04T20:23:16.201Z,67.43
2018-07-04T20:25:56.503Z,67.29
2018-07-04T20:28:36.877Z,68.37
2018-07-04T20:31:17.155Z,67.89
2018-07-04T20:33:57.531Z,68.50
2018-07-04T20:36:37.615Z,68.17
2018-07-04T20:39:17.947Z,68.93
2018-07-04T20:41:58.369Z,69.02
2018-07-04T20:44:39.006Z,68.71
2018-07-04T20:47:19.470Z,68.82
2018-07-04T20:49:59.635Z,68.88
2018-07-04T20:52:40.206Z,68.56
2018-07-04T20:55:20.450Z,69.65
2018-07-04T20:58:00.650Z,70.57
2018-07-04T21:00:41.025Z,71.24
2018-07-04T21:03:22.046Z,71.47
2018-07-04T21:06:02.513Z,71.38
2018-07-04T21:08:42.790Z,71.36
2018-07-04T21:11:23.015Z,71.52
2018-07-04T21:14:03.517Z,71.00
2018-07-04T21:16:45.112Z,71.13
2018-07-04T21:19:25.560Z,70.77
2018-07-04T21:22:05.735Z,70.78
2018-07-04T21:24:46.027Z,70.86
2018-07-04T21:27:26.401Z,71.05
2018-07-04T21:30:06.779Z,71.67
2018-07-04T21:32:47.012Z,71.73
2018-07-04T21:35:27.261Z,72.21
2018-07-04T21:38:07.629Z,71.95
2018-07-04T21:40:47.843Z,72.18
2018-07-04T21:43:28.112Z,72.66
2018-07-04T21:46:08.488Z,72.51
2018-07-04T21:48:49.825Z,72.36
2018-07-04T21:51:30.189Z,72.00
2018-07-04T21:54:10.496Z,72.49
2018-07-04T21:56:51.106Z,72.81
2018-07-04T21:59:31.802Z,73.71
2018-07-04T22:02:12.176Z,73.51
2018-07-04T22:04:56.498Z,73.88
2018-07-04T22:07:36.809Z,74.52
2018-07-04T22:10:17.266Z,73.84
2018-07-04T22:12:57.481Z,73.78
2018-07-04T22:15:37.739Z,74.07
2018-07-04T22:18:18.177Z,74.15
2018-07-04T22:20:58.259Z,74.79
2018-07-04T22:23:38.732Z,75.10
2018-07-04T22:26:18.945Z,75.55
2018-07-04T22:28:59.385Z,75.12
2018-07-04T22:31:39.718Z,74.84
2018-07-04T22:34:20.017Z,75.15
2018-07-04T22:37:00.565Z,74.64
2018-07-04T22:39:45.189Z,75.04
2018-07-04T22:42:25.493Z,75.72
2018-07-04T22:45:06.592Z,75.78
2018-07-04T22:47:47.048Z,76.28
2018-07-04T22:50:27.950Z,75.99
2018-07-04T22:53:08.391Z,76.43
2018-07-04T22:55:48.510Z,76.55
2018-07-04T22:58:28.824Z,77.47
2018-07-04T23:01:09.074Z,77.41
2018-07-04T23:03:49.528Z,77.97
2018-07-04T23:06:29.969Z,78.34
2018-07-04T23:09:10.388Z,78.45
2018-07-04T23:11:50.721Z,78.66
2018-07-04T23:14:31.155Z,79.46
2018-07-04T23:17:11.528Z,79.68
2018-07-04T23:19:52.005Z,79.91
2018-07-04T23:22:32.501Z,79.94
2018-07-04T23:25:12.977Z,80.25
2018-07-04T23:27:53.279Z,80.68
2018-07-04T23:30:33.537Z,80.68
2018-07-04T23:33:13.797Z,80.88
2018-07-04T23:35:54.134Z,81.33
2018-07-04T23:38:34.477Z,81.52
2018-07-04T23:41:14.728Z,81.82
2018-07-04T23:43:54.957Z,82.00
2018-07-04T23:46:35.349Z,82.05
2018-07-04T23:49:15.623Z,81.84
2018-07-04T23:51:56.030Z,82.37
2018-07-04T23:54:36.427Z,82.44
2018-07-04T23:57:16.733Z,83.08
2018-07-04T23:59:56.905Z,82.70
